Latest Coastal Weather Observations for Cape Byron

IDN60701

Issued at 3:02 am EST Tuesday 28 June 2022 (issued every 10 minutes, with the page automatically refreshed every 10 minutes)

About coastal observations | Map of coastal stations | Coastal observations for NSW | Marine services | Other Formats
Station Details ID: 058216 Name: CAPE BYRON AWS Lat: -28.64 Lon: 153.64 Height: 95.0 m
Data from the previous 72 hours. | See also: Recent months at Cape Byron
Date/Time
EST
Wind Sea
Height
m
Swell Vis
km
Cloud Weather Temp
°C
Press
MSL
hPa
Rain since
9am
mm
Dir  Spd
kts
Gust
kts
Height
m
Period
s
Dir
28/03:00am SW 22 33 - - - - - - - 12.7 1023.2 0.0
28/02:30am SW 21 28 - - - - - - - 12.7 1023.4 0.0
28/02:00am SW 21 33 - - - - - - - 13.0 1023.4 0.0
28/01:30am SW 21 31 - - - - - - - 13.1 1023.5 0.0
28/01:22am SW 21 31 - - - - - - - 13.2 1023.4 0.0
28/01:00am SW 22 29 - - - - - - - 13.4 1023.8 0.0
28/12:33am SW 19 29 - - - - - - - 12.9 1024.0 0.0
28/12:30am SW 19 27 - - - - - - - 12.7 1024.1 0.0
28/12:00am SW 20 28 - - - - - - - 13.9 1024.0 0.0
 
Date/Time
EST
Wind Sea
Height
m
Swell Vis
km
Cloud Weather Temp
°C
Press
MSL
hPa
Rain since
9am
mm
Dir  Spd
kts
Gust
kts
Height
m
Period
s
Dir
27/11:30pm SW 22 32 - - - - - - - 14.3 1023.9 0.0
27/11:24pm SW 22 32 - - - - - - - 14.4 1023.8 0.0
27/11:00pm SSW 24 31 - - - - - - - 15.1 1023.8 0.0
27/10:50pm SSW 30 42 - - - - - - - 15.5 1023.8 0.0
27/10:30pm SSW 33 43 - - - - - - - 16.2 1023.6 0.0
27/10:00pm SSW 34 44 - - - - - - - 16.3 1023.3 0.0
27/09:30pm SSW 35 45 - - - - - - - 16.8 1023.1 0.0
27/09:24pm SSW 33 45 - - - - - - - 16.9 1023.1 0.0
27/09:00pm S 33 40 - - - - - - - 17.3 1023.3 0.0
27/08:30pm S 31 37 - - - - - - - 17.5 1023.1 0.0
27/08:00pm S 27 34 - - - - - - - 17.7 1023.1 0.0
27/07:30pm S 26 31 - - - - - - - 17.6 1023.1 0.0
27/07:00pm S 22 27 - - - - - - - 18.0 1022.9 0.0
27/06:30pm S 17 21 - - - - - - - 17.9 1022.6 0.0
27/06:00pm S 18 23 - - - - - - - 17.8 1022.1 0.0
27/05:30pm S 16 20 - - - - - - - 17.8 1021.9 0.0
27/05:00pm S 15 18 - - - - - - - 17.7 1021.8 0.0
27/04:30pm S 16 19 - - - - - - - 17.7 1021.4 0.0
27/04:00pm S 18 20 - - - - - - - 17.6 1021.2 0.0
27/03:30pm S 19 21 - - - - - - - 17.8 1020.9 0.0
27/03:00pm SSW 18 23 - - - - - - - 18.0 1021.0 0.0
27/02:30pm S 18 21 - - - - - - - 17.9 1020.9 0.0
27/02:00pm SSW 17 21 - - - - - - - 17.8 1020.9 0.0
27/01:30pm S 17 21 - - - - - - - 18.2 1020.9 0.0
27/01:00pm SSW 14 19 - - - - - - - 18.5 1021.1 0.0
27/12:30pm SSW 13 18 - - - - - - - 18.2 1021.6 0.0
27/12:00pm SW 15 21 - - - - - - - 17.9 1022.0 0.0
27/11:30am SW 17 24 - - - - - - - 17.7 1022.3 0.0
27/11:00am W 10 15 - - - - - - - 17.4 1022.2 0.0
27/10:30am W 14 21 - - - - - - - 16.5 1022.8 0.0
27/10:29am W 14 21 - - - - - - - 16.4 1022.7 0.0
27/10:00am WSW 5 8 - - - - - - - 16.8 1022.9 0.0
27/09:30am WNW 5 7 - - - - - - - 16.1 1023.0 0.0
27/09:00am WNW 7 10 - - - - - - - 15.2 1022.9 0.0
27/08:30am NW 10 15 - - - - - - - 15.4 1023.0 0.0
27/08:00am WNW 12 17 - - - - - - - 14.6 1023.0 0.0
27/07:30am W 15 19 - - - - - - - 13.6 1023.0 0.0
27/07:00am W 15 21 - - - - - - - 13.8 1023.1 0.0
27/06:30am WSW 17 22 - - - - - - - 14.6 1022.9 0.0
27/06:00am WSW 15 19 - - - - - - - 15.3 1022.8 0.0
27/05:30am WSW 15 17 - - - - - - - 15.2 1022.6 0.0
27/05:00am WSW 15 18 - - - - - - - 15.0 1022.6 0.0
27/04:30am WSW 15 19 - - - - - - - 14.8 1022.8 0.0
27/04:00am WSW 13 17 - - - - - - - 14.2 1022.8 0.0
27/03:30am SW 10 12 - - - - - - - 15.7 1023.0 0.0
27/03:00am W 9 12 - - - - - - - 14.8 1023.4 0.0
27/02:30am W 8 10 - - - - - - - 14.1 1023.4 0.0
27/02:00am WNW 5 8 - - - - - - - 13.8 1023.7 0.0
27/01:30am WNW 6 10 - - - - - - - 13.8 1023.9 0.0
27/01:00am NW 6 12 - - - - - - - 14.7 1024.1 0.0
27/12:30am WNW 7 10 - - - - - - - 14.1 1024.3 0.0
27/12:00am WNW 5 10 - - - - - - - 14.5 1024.6 0.0
 
Date/Time
EST
Wind Sea
Height
m
Swell Vis
km
Cloud Weather Temp
°C
Press
MSL
hPa
Rain since
9am
mm
Dir  Spd
kts
Gust
kts
Height
m
Period
s
Dir
26/11:30pm WNW 4 6 - - - - - - - 14.5 1024.9 0.0
26/11:00pm NW 4 7 - - - - - - - 14.7 1024.9 0.0
26/10:30pm NW 5 7 - - - - - - - 14.5 1025.0 0.0
26/10:00pm NW 4 5 - - - - - - - 14.9 1025.0 0.0
26/09:30pm NW 4 6 - - - - - - - 14.8 1024.9 0.0
26/09:00pm NW 4 7 - - - - - - - 14.8 1024.8 0.0
26/08:30pm WNW 6 8 - - - - - - - 14.7 1024.9 0.0
26/08:00pm NW 6 8 - - - - - - - 15.5 1024.7 0.0
26/07:30pm WNW 4 6 - - - - - - - 16.5 1024.9 0.0
26/07:00pm N 9 11 - - - - - - - 18.1 1024.7 0.0
26/06:30pm NE 7 10 - - - - - - - 17.9 1024.5 0.0
26/06:00pm NE 7 9 - - - - - - - 17.7 1024.2 0.0
26/05:30pm ENE 8 9 - - - - - - - 17.2 1023.9 0.0
26/05:00pm ENE 4 6 - - - - - - - 17.4 1023.8 0.0
26/04:30pm ENE 4 6 - - - - - - - 17.8 1023.8 0.0
26/04:00pm E 4 6 - - - - - - - 18.3 1023.8 0.0
26/03:30pm E 5 8 - - - - - - - 18.8 1023.7 0.0
26/03:00pm E 5 7 - - - - - - - 19.7 1023.6 0.0
26/02:30pm E 5 6 - - - - - - - 20.5 1023.8 0.0
26/02:00pm E 5 6 - - - - - - - 20.5 1023.9 0.0
26/01:30pm ENE 5 6 - - - - - - - 20.7 1024.0 0.0
26/01:00pm E 5 6 - - - - - - - 21.4 1024.1 0.0
26/12:30pm E 5 6 - - - - - - - 20.7 1024.4 0.0
26/12:00pm E 4 6 - - - - - - - 20.3 1025.0 0.0
26/11:30am ENE 3 5 - - - - - - - 20.2 1025.3 0.0
26/11:00am SSW 2 4 - - - - - - - 19.2 1025.6 0.0
26/10:30am WSW 5 6 - - - - - - - 18.1 1025.6 0.0
26/10:00am WSW 6 8 - - - - - - - 17.2 1025.7 0.0
26/09:30am WSW 7 10 - - - - - - - 16.3 1025.7 0.0
26/09:00am WSW 9 11 - - - - - - - 15.2 1025.6 0.0
26/08:30am WSW 11 14 - - - - - - - 14.4 1025.6 0.0
26/08:00am WSW 12 15 - - - - - - - 14.3 1025.5 0.0
26/07:30am WSW 13 16 - - - - - - - 13.9 1025.5 0.0
26/07:00am WSW 13 15 - - - - - - - 14.4 1025.2 0.0
26/06:30am WSW 13 16 - - - - - - - 13.3 1024.9 0.0
26/06:00am WSW 11 13 - - - - - - - 14.5 1024.7 0.0
26/05:30am SW 11 13 - - - - - - - 14.7 1024.4 0.0
26/05:00am WSW 9 12 - - - - - - - 15.3 1024.0 0.0
26/04:30am SW 10 13 - - - - - - - 14.8 1023.7 0.0
26/04:00am SW 9 12 - - - - - - - 15.0 1023.7 0.0
26/03:30am SW 8 10 - - - - - - - 15.8 1023.7 0.0
26/03:00am WSW 8 10 - - - - - - - 15.9 1023.8 0.0
26/02:30am WSW 8 9 - - - - - - - 15.8 1023.9 0.0
26/02:00am WSW 8 10 - - - - - - - 15.6 1023.9 0.0
26/01:30am W 7 9 - - - - - - - 15.8 1024.0 0.0
26/01:00am W 9 10 - - - - - - - 15.1 1024.1 0.0
26/12:30am W 8 9 - - - - - - - 15.7 1023.9 0.0
26/12:00am WSW 6 7 - - - - - - - 16.3 1024.2 0.0
 
Date/Time
EST
Wind Sea
Height
m
Swell Vis
km
Cloud Weather Temp
°C
Press
MSL
hPa
Rain since
9am
mm
Dir  Spd
kts
Gust
kts
Height
m
Period
s
Dir
25/11:30pm W 10 11 - - - - - - - 15.2 1024.5 0.0
25/11:00pm W 10 12 - - - - - - - 15.0 1024.7 0.0
25/10:30pm WSW 9 11 - - - - - - - 15.5 1024.5 0.0
25/10:00pm WSW 9 11 - - - - - - - 16.2 1024.6 0.0
25/09:30pm SW 8 10 - - - - - - - 16.4 1024.4 0.0
25/09:00pm SW 8 10 - - - - - - - 16.2 1024.4 0.0
25/08:30pm WSW 7 9 - - - - - - - 16.0 1024.3 0.0
25/08:00pm W 7 8 - - - - - - - 15.9 1024.0 0.0
25/07:30pm SW 6 8 - - - - - - - 16.4 1024.0 0.0
25/07:00pm SSW 8 10 - - - - - - - 16.0 1023.5 0.0
25/06:30pm SSW 9 11 - - - - - - - 15.6 1023.2 0.0
25/06:00pm SSW 9 11 - - - - - - - 15.6 1022.8 0.0
25/05:30pm SSW 9 13 - - - - - - - 16.3 1022.3 0.0
25/05:00pm SSW 9 12 - - - - - - - 16.9 1022.3 0.0
25/04:30pm S 11 13 - - - - - - - 17.5 1022.1 0.0
25/04:00pm S 10 12 - - - - - - - 18.0 1022.0 0.0
25/03:30pm S 9 11 - - - - - - - 18.2 1022.0 0.0
25/03:00pm S 8 11 - - - - - - - 18.4 1021.9 0.0
25/02:30pm S 9 11 - - - - - - - 18.7 1021.8 0.0
25/02:00pm S 9 12 - - - - - - - 18.5 1021.7 0.0
25/01:30pm S 9 12 - - - - - - - 18.6 1021.6 0.0
25/01:00pm S 8 11 - - - - - - - 18.7 1022.0 0.0
25/12:30pm SSW 7 9 - - - - - - - 19.0 1022.0 0.0
25/12:00pm SSW 9 13 - - - - - - - 18.3 1022.2 0.0
25/11:30am SW 7 11 - - - - - - - 18.0 1022.7 0.0
25/11:00am SW 9 11 - - - - - - - 17.0 1022.8 0.0
25/10:30am SW 10 14 - - - - - - - 16.4 1022.9 0.0
25/10:00am WSW 10 13 - - - - - - - 15.8 1023.0 0.0
25/09:30am SW 13 18 - - - - - - - 15.4 1022.9 0.0
25/09:00am WSW 12 16 - - - - - - - 14.8 1022.8 0.0
25/08:30am WSW 14 19 - - - - - - - 14.2 1022.7 0.0
25/08:00am WSW 17 21 - - - - - - - 13.6 1022.4 0.0
25/07:30am WSW 17 21 - - - - - - - 13.3 1022.1 0.0
25/07:00am WSW 17 21 - - - - - - - 13.3 1021.5 0.0
25/06:30am WSW 17 21 - - - - - - - 13.5 1021.3 0.0
25/06:00am WSW 17 22 - - - - - - - 13.5 1021.0 0.0
25/05:30am WSW 17 22 - - - - - - - 13.5 1020.6 0.0
25/05:00am WSW 16 20 - - - - - - - 13.6 1020.5 0.0
25/04:30am WSW 14 18 - - - - - - - 13.0 1020.3 0.0
25/04:00am WSW 14 19 - - - - - - - 14.3 1020.0 0.0
25/03:30am WSW 15 19 - - - - - - - 15.1 1020.0 0.0

Other formats

Comma delimited format used in spreadsheet applications
http://www.bom.gov.au/fwo/IDN60701/IDN60701.94599.axf

JavaScript Object Notation format (JSON) in row-major order
http://www.bom.gov.au/fwo/IDN60701/IDN60701.94599.json

Data quality

Most of these data are generated automatically and are frequently updated. Quality checks on data are not normally performed. It is possible for incorrect values to appear. Refer to information at About Latest Weather Observations and please check the disclaimer before using these data.